In Rescue
 
Open Full Screen Window  High Contrast Mode
Wind Gusting 00 knots
06
May 13, 2021 12:11 PM EDT
Weather Information
Wind Direction
  300 °
Wind Speed
  06 kt (7 mph)
Wind Gust
  00 kt (0 mph)
Altimeter
30.39 in
Visibility
10 SM
Temperature
18° C
64° F
Dewpoint
-03° C
27° F
Humidity
24%
1hr Rain Fall
00.00 in.
24hr Rain Fall
00.00 in.
Sky Condition
Clear
VFR

METAR KFPK 131611Z AUTO 30006KT 10SM CLR 18/M03 A3039 RMK AO2 T01761034

FAA Disclaimer: The data displayed is for advisory purposes only and is not to be used for flight planning or operations.